UPDATE 02.09.20 Die Stationsgrafiken wurden erweitert. Temperaturgrafik und Regentage unter Almanach -> Seperate Stationsgrafiken -> Temperatur
Besuchen Sie den Menüpunkt "Almanach / History" WU-Grafiken um Wetterdaten über die Jahre zu vergleichen!
Die Daten stammen von meiner Wetterstation und wurden von Weatherunderground aufgezeichnet.
Gewitter Gültig von: 18-05-2021 14:27 bis: 16:27 Warnung für: Gewitter Gefahrenstufe: Gelb info button

Rindlberg West Mehr Informationen Rindlberg West


Stuetzi - Rindlberg Ost Mehr Informationen Stuetzi - Rindlberg Ost


Warnung für Gewitter Mehr Informationen blitzortung!


Regenradar Mehr Informationen rain snow radar


Sie finden meine Wetter-Infos auch auf:

Weather Underground

AWEKAS



METAR-Meldungen aus der Umgebung

   
LOWL - Linz
Aktualisierung: 18-05-2021 15:20
Leichte Schauer, Regen, Stark bewölkt  
Leichte Schauer, Regen, Stark bewölkt  
   Wind: Westen 29.6 km/h
Wind: Westen 29.6 km/h
Temperatur: 12°C
Taupunkt: 7°C
Luftfeuchte: 72%
Luftdruck: 1014 hPa
Wolken: Stark bewölkt
Sichtbarkeit: Mehr als 10 km
Bewölkung: Teilweise bewölkt 2500 ft,
leicht bewölkt 3000 ft,
Stark bewölkt 7500 ft
LOWL 181320Z 28016KT 9999 -SHRA SCT025 FEW030CB BKN075 12/07 Q1014 NOSIG
LOWW - Vienna
Aktualisierung: 18-05-2021 15:20
Klar  
Klar  
   Wind: Westen 29.6 km/h
Wind: Westen 29.6 km/h
Temperatur: 17°C
Taupunkt: 8°C
Luftfeuchte: 56%
Luftdruck: 1012 hPa
Sichtbarkeit: Mehr als 10 km
Bewölkung: Klar
LOWW 181320Z 27016KT CAVOK 17/08 Q1012 TEMPO FM1400 SHRA
 

Script entwickelt von  Saratoga-weather.org Angepasst für das Template von  Weerstation Leuven